Alicante-Elche Airport

Airport
ICAO code: 
LEAL
IATA Code: 
ALC
Summary
ICAO Region: 
EUR
Territory: 
Location: 
Elche, Alicante
Serving: 
Alicante
Elevation: 
142 ft
Coordinates: 
Aerial View: 
38° 17' 2.102" N, 0° 33' 36.884" W
Metar
Observation
LEAL 190200Z 31006KT CAVOK 06/03 Q1031 NOSIG
Station
Alicante / El Altet
Date/Time
2022-01-19 02:00:00
Wind direction
310°
Wind speed
06 kts
Lowest cloud amount
clouds and visibility OK
Temperature
6°C
Dew point
3°C
Humidity
81%
QNH
1031 hPa
Weather condition
n/a

Description

International airport serving Alicante, Spain. Alicante Airport, originally named El Altet is the main airport for the Province of Alicante and the Region of Murcia. The airport is situated 9 km southwest of Alicante in the municipality of Elche on Mediterranean coast.

Climatology

Dry-summer subtropical ”Mediterranean" climate (Köppen climate classification Csa) - characterized by hot, dry summers and mild winters. During the summer, subtropical high pressure cells dominate, making rainfall unlikely except for the occasional thunderstorm. In the winter, periodic storms bring rain (snow at higher elevations).

Runways

Designator Length Width Surface Rops
10/28 3000 45 ASP Yes/Yes
Airport map: 
Aerial View: 

Accidents and Serious Incidents at or in the vicinity of LEAL

SKYbrary Partners:

Safety knowledge contributed by: